Time;durP1;ratioP1;P1;durP2;ratioP2;P2;SDS_P1;SDS_P2;PMS_P1;PMS_P2;Temp;Humidity;BMP_temperature;BMP_pressure;BME280_temperature;BME280_humidity;BME280_pressure;Samples;Min_cycle;Max_cycle;Signal;HPM_P1;HPM_P2
2021/12/03 00:01:00;;;;;;;34.08;19.38;;;;;;;0.42;84.89;100814.13;5075672;28;20044;-66
2021/12/03 00:03:27;;;;;;;39.03;20.63;;;;;;;0.44;84.79;100808.78;5090506;28;20041;-65
2021/12/03 00:05:56;;;;;;;33.47;20.42;;;;;;;0.35;85.72;100808.38;5058712;28;20071;-66
2021/12/03 00:08:25;;;;;;;39.95;20.42;;;;;;;0.32;86.02;100808.56;5074595;28;20537;-65
2021/12/03 00:10:57;;;;;;;35.97;19.75;;;;;;;0.43;85.36;100802.72;5074376;28;20412;-65
2021/12/03 00:13:25;;;;;;;37.13;21.33;;;;;;;0.46;84.92;100806.94;5071584;28;20413;-66
2021/12/03 00:15:54;;;;;;;37.35;20.40;;;;;;;0.42;85.07;100801.06;5093948;28;20040;-65
2021/12/03 00:18:21;;;;;;;35.50;20.75;;;;;;;0.37;84.75;100798.69;5095260;28;20047;-65
2021/12/03 00:20:49;;;;;;;36.17;20.30;;;;;;;0.36;85.64;100796.16;5094084;28;20052;-65
2021/12/03 00:23:18;;;;;;;33.13;19.27;;;;;;;0.38;84.99;100795.19;5074241;28;20401;-65
2021/12/03 00:25:45;;;;;;;34.72;20.45;;;;;;;0.31;85.56;100791.22;5074149;28;20052;-65
2021/12/03 00:28:12;;;;;;;34.85;20.13;;;;;;;0.29;85.46;100792.22;5075452;28;20119;-66
2021/12/03 00:30:39;;;;;;;41.42;21.27;;;;;;;0.27;85.95;100797.53;5075299;28;20044;-65
2021/12/03 00:33:07;;;;;;;44.58;20.48;;;;;;;0.33;84.52;100802.41;5073801;28;20410;-65
2021/12/03 00:35:34;;;;;;;36.47;20.85;;;;;;;0.33;85.18;100804.19;5075303;28;20040;-65
2021/12/03 00:38:02;;;;;;;37.80;20.38;;;;;;;0.25;84.91;100804.59;5074177;28;20412;-66
2021/12/03 00:40:32;;;;;;;36.95;21.50;;;;;;;0.19;85.92;100805.78;5074589;28;20040;-65
2021/12/03 00:42:59;;;;;;;40.92;22.92;;;;;;;0.22;85.30;100811.75;5089820;28;20048;-66
2021/12/03 00:45:27;;;;;;;36.53;21.05;;;;;;;0.22;85.04;100812.63;5054422;28;20044;-65
2021/12/03 00:47:53;;;;;;;43.58;22.83;;;;;;;0.28;85.45;100822.72;5086969;28;20557;-65
2021/12/03 00:50:23;;;;;;;37.22;21.90;;;;;;;0.24;85.70;100821.19;5071950;28;20128;-66
2021/12/03 00:52:51;;;;;;;43.47;22.75;;;;;;;0.26;85.74;100834.16;5074632;28;20044;-65
2021/12/03 00:55:19;;;;;;;46.83;22.25;;;;;;;0.37;85.25;100818.75;5074711;28;20044;-66
2021/12/03 00:57:46;;;;;;;43.58;23.13;;;;;;;0.41;85.23;100824.63;5075101;28;20045;-65
2021/12/03 01:00:18;;;;;;;40.10;23.10;;;;;;;0.37;85.43;100824.81;5073794;28;20072;-65
2021/12/03 01:02:45;;;;;;;44.55;24.23;;;;;;;0.40;85.22;100821.19;5074034;28;20402;-65
2021/12/03 01:05:12;;;;;;;47.80;24.48;;;;;;;0.42;85.90;100824.56;5072971;28;20119;-65
2021/12/03 01:07:39;;;;;;;46.08;24.98;;;;;;;0.45;86.43;100821.75;5074697;28;20064;-66
2021/12/03 01:10:07;;;;;;;50.88;24.42;;;;;;;0.51;85.76;100824.03;5074694;28;20097;-65
2021/12/03 01:12:36;;;;;;;44.90;25.52;;;;;;;0.53;86.03;100830.00;5053332;28;20528;-65
2021/12/03 01:15:06;;;;;;;43.97;25.13;;;;;;;0.61;85.85;100829.56;5054748;28;20049;-66
2021/12/03 01:17:33;;;;;;;46.40;25.00;;;;;;;0.74;85.07;100846.19;5089413;28;20467;-65
2021/12/03 01:20:04;;;;;;;49.85;25.17;;;;;;;0.69;85.55;100845.63;5074012;28;20074;-65
2021/12/03 01:22:31;;;;;;;47.00;25.17;;;;;;;0.80;85.98;100833.72;5073279;28;20046;-65
2021/12/03 01:24:57;;;;;;;52.45;26.80;;;;;;;0.78;86.37;100846.84;5070943;28;20040;-65
2021/12/03 01:27:24;;;;;;;48.42;27.02;;;;;;;0.76;86.38;100853.94;5075539;28;20051;-66
2021/12/03 01:29:51;;;;;;;47.97;25.58;;;;;;;0.92;85.66;100844.28;5094651;28;20496;-66
2021/12/03 01:32:18;;;;;;;49.65;25.38;;;;;;;1.03;85.29;100846.28;5094229;28;20044;-65
2021/12/03 01:34:44;;;;;;;58.72;26.65;;;;;;;1.05;85.39;100839.19;5084428;28;20048;-65
2021/12/03 01:37:11;;;;;;;50.60;26.05;;;;;;;1.07;85.15;100842.53;5074058;28;20068;-65
2021/12/03 01:39:38;;;;;;;47.38;25.92;;;;;;;1.22;84.57;100845.19;5074286;28;20045;-65
2021/12/03 01:42:05;;;;;;;54.33;27.05;;;;;;;1.19;85.19;100840.16;5073926;28;20051;-66
2021/12/03 01:44:31;;;;;;;53.95;27.08;;;;;;;1.18;85.04;100839.28;5074005;28;20579;-65
2021/12/03 01:47:00;;;;;;;54.35;26.45;;;;;;;1.21;85.66;100828.66;5072859;28;20048;-65
2021/12/03 01:49:27;;;;;;;50.75;26.85;;;;;;;1.25;85.68;100830.16;5072476;28;20520;-66
2021/12/03 01:51:54;;;;;;;52.78;26.60;;;;;;;1.33;84.97;100834.97;5072515;28;20050;-66
2021/12/03 01:54:20;;;;;;;49.50;26.27;;;;;;;1.34;84.66;100828.78;5073820;28;20041;-66
2021/12/03 01:56:47;;;;;;;52.88;27.30;;;;;;;1.35;85.47;100838.31;5089740;28;20041;-65
2021/12/03 01:59:14;;;;;;;53.65;25.92;;;;;;;1.41;85.33;100837.09;5067678;28;20048;-65
2021/12/03 02:01:41;;;;;;;49.75;26.58;;;;;;;1.59;84.87;100837.75;5073317;28;20044;-65
2021/12/03 02:04:08;;;;;;;49.35;26.33;;;;;;;1.49;84.55;100843.56;5089519;28;20053;-65
2021/12/03 02:06:35;;;;;;;53.95;25.85;;;;;;;1.62;84.57;100854.09;5053380;28;20426;-65
2021/12/03 02:09:02;;;;;;;48.83;26.77;;;;;;;1.49;84.93;100853.16;5053779;28;20048;-65
2021/12/03 02:11:29;;;;;;;54.65;27.17;;;;;;;1.48;84.99;100852.31;5052491;28;20095;-66
2021/12/03 02:13:57;;;;;;;48.92;26.55;;;;;;;1.57;84.78;100857.94;5071190;28;20040;-65
2021/12/03 02:16:24;;;;;;;45.00;24.33;;;;;;;1.67;83.88;100857.28;5091142;28;20509;-65
2021/12/03 02:18:51;;;;;;;53.47;27.20;;;;;;;1.51;84.32;100854.75;5084762;28;20037;-65
2021/12/03 02:21:20;;;;;;;55.15;25.73;;;;;;;1.59;84.41;100856.91;5072432;28;20132;-65
2021/12/03 02:23:48;;;;;;;53.45;27.15;;;;;;;1.53;84.37;100847.66;5071946;28;20037;-65
2021/12/03 02:26:15;;;;;;;51.90;26.17;;;;;;;1.54;85.11;100849.31;5073358;28;20044;-65
2021/12/03 02:28:45;;;;;;;50.30;26.75;;;;;;;1.51;85.28;100849.53;5072982;28;20448;-66
2021/12/03 02:31:14;;;;;;;58.72;27.52;;;;;;;1.48;86.25;100852.31;5072079;28;20119;-65
2021/12/03 02:33:42;;;;;;;53.75;26.05;;;;;;;1.64;85.32;100856.63;5072887;28;20036;-65
2021/12/03 02:36:09;;;;;;;50.53;26.25;;;;;;;1.68;84.99;100851.09;5071297;28;20040;-65
2021/12/03 02:38:36;;;;;;;54.00;25.55;;;;;;;1.72;83.96;100857.81;5073080;28;20052;-65
2021/12/03 02:41:04;;;;;;;48.38;23.48;;;;;;;1.66;84.46;100855.59;5055273;28;20044;-65
2021/12/03 02:43:31;;;;;;;49.25;22.70;;;;;;;1.68;84.60;100845.03;5072764;28;20090;-65
2021/12/03 02:45:58;;;;;;;54.85;24.67;;;;;;;1.61;85.05;100848.97;5073047;28;20048;-65
2021/12/03 02:48:26;;;;;;;54.35;25.30;;;;;;;1.54;86.13;100844.09;5072755;28;20045;-65
2021/12/03 02:50:54;;;;;;;54.33;24.02;;;;;;;1.53;86.24;100845.03;5072919;28;20051;-65
2021/12/03 02:53:21;;;;;;;52.30;22.25;;;;;;;1.70;85.92;100843.16;5072797;28;20037;-65
2021/12/03 02:55:49;;;;;;;54.45;23.63;;;;;;;1.52;86.36;100840.72;5071407;28;20051;-65
2021/12/03 02:58:16;;;;;;;56.42;23.17;;;;;;;1.75;85.22;100846.34;5072963;28;20041;-65
2021/12/03 03:00:44;;;;;;;47.33;23.65;;;;;;;1.72;85.32;100843.91;5072942;28;20128;-66
2021/12/03 03:03:11;;;;;;;55.97;24.02;;;;;;;1.80;85.55;100839.06;5072636;28;20041;-66
2021/12/03 03:05:38;;;;;;;49.58;22.95;;;;;;;1.89;84.85;100843.72;5053229;28;20040;-66
2021/12/03 03:08:05;;;;;;;47.03;21.42;;;;;;;1.91;84.66;100839.22;5071842;28;20378;-65
2021/12/03 03:10:39;;;;;;;53.80;22.35;;;;;;;1.91;85.03;100841.84;5072136;28;20060;-65
2021/12/03 03:13:06;;;;;;;45.75;21.17;;;;;;;1.85;85.53;100847.44;5071500;28;20033;-66
2021/12/03 03:15:33;;;;;;;48.10;21.80;;;;;;;1.84;85.89;100848.38;5054902;28;20060;-66
2021/12/03 03:18:12;;;;;;;51.03;20.05;;;;;;;2.01;84.45;100844.72;5072560;28;20140;-65
2021/12/03 03:20:41;;;;;;;51.58;21.08;;;;;;;2.05;84.90;100853.22;5072690;28;20416;-65
2021/12/03 03:23:08;;;;;;;43.22;21.50;;;;;;;1.90;85.06;100855.84;5072320;28;20370;-65
2021/12/03 03:25:36;;;;;;;48.88;21.90;;;;;;;1.98;85.17;100863.22;5055043;28;20040;-65
2021/12/03 03:28:03;;;;;;;46.28;20.48;;;;;;;1.96;84.83;100861.63;5071333;28;20048;-65
2021/12/03 03:30:30;;;;;;;50.55;20.85;;;;;;;2.00;85.18;100855.28;5072525;28;20521;-65
2021/12/03 03:32:58;;;;;;;57.67;21.60;;;;;;;1.94;84.99;100856.50;5073778;28;20033;-65
2021/12/03 03:35:25;;;;;;;52.38;20.98;;;;;;;2.13;84.18;100853.59;5076126;28;20516;-65
2021/12/03 03:37:52;;;;;;;47.70;20.88;;;;;;;2.21;84.87;100846.06;5073780;28;20555;-65
2021/12/03 03:40:19;;;;;;;47.08;20.58;;;;;;;2.17;83.73;100852.44;5076515;28;20121;-65
2021/12/03 03:42:45;;;;;;;47.03;21.02;;;;;;;2.02;85.14;100856.00;5076402;28;20033;-65
2021/12/03 03:45:16;;;;;;;48.60;19.45;;;;;;;2.20;84.76;100854.00;5075002;28;20139;-65
2021/12/03 03:47:43;;;;;;;48.72;19.83;;;;;;;2.12;84.55;100841.41;5075129;28;20060;-66
2021/12/03 03:50:13;;;;;;;42.88;18.80;;;;;;;2.14;84.42;100828.25;5076027;28;20044;-65
2021/12/03 03:52:41;;;;;;;39.03;18.33;;;;;;;2.07;84.93;100827.78;5076049;28;20048;-66
2021/12/03 03:55:11;;;;;;;46.70;18.85;;;;;;;2.29;83.52;100833.34;5076049;28;20040;-65
2021/12/03 03:57:38;;;;;;;50.30;18.88;;;;;;;2.24;84.18;100837.19;5091783;28;20051;-66
2021/12/03 04:00:08;;;;;;;49.47;19.40;;;;;;;2.22;84.26;100826.81;5076106;28;20053;-66
2021/12/03 04:02:40;;;;;;;44.10;18.77;;;;;;;2.22;84.13;100823.34;5075699;28;20041;-66
2021/12/03 04:05:08;;;;;;;43.65;19.25;;;;;;;2.25;84.67;100820.53;5075788;28;20475;-65
2021/12/03 04:07:35;;;;;;;44.25;18.50;;;;;;;2.42;83.74;100817.69;5074104;28;20041;-65
2021/12/03 04:10:03;;;;;;;43.92;19.50;;;;;;;2.32;83.80;100813.97;5075765;28;20040;-65
2021/12/03 04:12:30;;;;;;;46.13;18.30;;;;;;;2.26;84.11;100809.13;5075722;28;20117;-66
2021/12/03 04:14:56;;;;;;;43.40;18.13;;;;;;;2.42;83.78;100814.19;5073474;28;20047;-65
2021/12/03 04:17:23;;;;;;;46.80;19.60;;;;;;;2.35;84.07;100815.53;5076516;28;20045;-66
2021/12/03 04:19:50;;;;;;;40.17;18.17;;;;;;;2.58;82.86;100808.81;5074415;28;20504;-65
2021/12/03 04:22:23;;;;;;;48.08;19.38;;;;;;;2.32;84.13;100806.13;5057907;28;20055;-65
2021/12/03 04:24:52;;;;;;;40.53;18.48;;;;;;;2.35;83.93;100808.53;5076623;28;20119;-65
2021/12/03 04:27:19;;;;;;;53.80;18.50;;;;;;;2.30;84.22;100811.44;5074703;28;20051;-65
2021/12/03 04:29:46;;;;;;;41.63;19.13;;;;;;;2.26;84.61;100807.34;5073946;28;20044;-66
2021/12/03 04:32:14;;;;;;;60.10;19.88;;;;;;;2.35;84.18;100797.22;5075578;28;20047;-66
2021/12/03 04:34:41;;;;;;;42.08;19.20;;;;;;;2.38;83.37;100810.13;5072094;28;20047;-65
2021/12/03 04:37:08;;;;;;;41.63;18.92;;;;;;;2.30;84.74;100800.97;5075466;28;20040;-65
2021/12/03 04:39:35;;;;;;;44.97;19.00;;;;;;;2.47;83.92;100797.28;5074248;28;20131;-65
2021/12/03 04:42:02;;;;;;;47.70;18.83;;;;;;;2.47;83.58;100796.41;5075093;28;20052;-65
2021/12/03 04:44:28;;;;;;;44.58;19.02;;;;;;;2.36;84.83;100797.13;5071135;28;20053;-66
2021/12/03 04:46:55;;;;;;;45.13;18.27;;;;;;;2.33;84.90;100794.72;5057891;28;20041;-65
2021/12/03 04:49:22;;;;;;;45.47;18.52;;;;;;;2.33;84.84;100784.25;5074161;28;20051;-65
2021/12/03 04:51:48;;;;;;;43.13;18.55;;;;;;;2.38;84.40;100792.63;5073987;28;20121;-66
2021/12/03 04:54:15;;;;;;;47.28;19.05;;;;;;;2.32;84.49;100787.78;5075161;28;20063;-65
2021/12/03 04:56:42;;;;;;;42.25;18.58;;;;;;;2.67;83.12;100790.72;5074744;28;20040;-66
2021/12/03 04:59:09;;;;;;;44.13;18.48;;;;;;;2.60;83.22;100788.59;5074397;28;20055;-65
2021/12/03 05:01:35;;;;;;;41.50;18.17;;;;;;;2.45;84.03;100788.66;5075099;28;20048;-65
2021/12/03 05:04:02;;;;;;;43.35;18.58;;;;;;;2.48;83.70;100795.50;5073613;28;20071;-65
2021/12/03 05:06:41;;;;;;;40.45;17.65;;;;;;;2.52;83.71;100807.44;5074685;28;20045;-65
2021/12/03 05:09:08;;;;;;;39.35;18.08;;;;;;;2.43;83.69;100811.50;5073120;28;20102;-65
2021/12/03 05:11:35;;;;;;;46.53;18.83;;;;;;;2.58;83.23;100811.44;5074365;28;20113;-67
2021/12/03 05:14:02;;;;;;;45.72;19.27;;;;;;;2.49;83.68;100815.47;5056897;28;20036;-66
2021/12/03 05:16:28;;;;;;;40.25;17.58;;;;;;;2.58;83.00;100806.19;5073557;28;20045;-68
2021/12/03 05:18:56;;;;;;;38.40;18.60;;;;;;;2.42;84.04;100808.97;5073434;28;20041;-66
2021/12/03 05:21:22;;;;;;;39.25;16.48;;;;;;;2.57;83.46;100800.13;5074640;28;20448;-67
2021/12/03 05:23:49;;;;;;;49.40;19.08;;;;;;;2.45;83.74;100809.59;5074300;28;20044;-68
2021/12/03 05:26:16;;;;;;;39.85;17.73;;;;;;;2.54;84.08;100804.72;5074291;28;20110;-67
2021/12/03 05:28:42;;;;;;;41.22;17.80;;;;;;;2.57;83.77;100807.97;5073322;28;20123;-67
2021/12/03 05:31:09;;;;;;;43.90;17.85;;;;;;;2.53;84.22;100796.03;5074551;28;20109;-66
2021/12/03 05:33:36;;;;;;;45.53;18.52;;;;;;;2.64;83.55;100803.19;5071210;28;20409;-66
2021/12/03 05:36:03;;;;;;;39.05;17.58;;;;;;;2.63;83.49;100801.50;5073994;28;20048;-66
2021/12/03 05:38:29;;;;;;;42.78;18.63;;;;;;;2.63;83.07;100801.50;5072815;28;20045;-67
2021/12/03 05:40:56;;;;;;;47.08;18.17;;;;;;;2.67;83.19;100805.59;5072857;28;20036;-67
2021/12/03 05:43:23;;;;;;;42.67;18.30;;;;;;;2.54;83.49;100807.34;5072783;28;20054;-66
2021/12/03 05:45:50;;;;;;;48.65;18.63;;;;;;;2.58;83.75;100800.94;5073957;28;20066;-65
2021/12/03 05:48:16;;;;;;;40.45;17.92;;;;;;;2.67;83.27;100808.19;5073778;28;20040;-65
2021/12/03 05:50:45;;;;;;;49.20;19.67;;;;;;;2.53;83.59;100813.50;5072800;28;20127;-66
2021/12/03 05:53:11;;;;;;;44.55;18.70;;;;;;;2.50;83.87;100812.78;5072363;28;20048;-66
2021/12/03 05:55:38;;;;;;;50.40;19.35;;;;;;;2.57;84.89;100805.38;5071865;28;20045;-65
2021/12/03 05:58:05;;;;;;;43.05;18.40;;;;;;;2.59;83.91;100803.47;5073640;28;20068;-65
2021/12/03 06:00:35;;;;;;;38.03;17.77;;;;;;;2.65;83.68;100808.31;5073782;28;20048;-65
2021/12/03 06:03:03;;;;;;;39.80;18.85;;;;;;;2.45;84.68;100796.50;5073563;28;20128;-66
2021/12/03 06:05:31;;;;;;;52.20;18.58;;;;;;;2.45;84.52;100801.75;5071608;28;20527;-67
2021/12/03 06:07:58;;;;;;;51.63;19.27;;;;;;;2.55;84.73;100803.75;5056091;28;20119;-67
2021/12/03 06:10:26;;;;;;;42.28;17.48;;;;;;;2.77;83.39;100805.84;5073134;28;20496;-66
2021/12/03 06:12:54;;;;;;;44.30;18.67;;;;;;;2.72;83.41;100807.91;5073267;28;20119;-67
2021/12/03 06:15:21;;;;;;;50.70;18.67;;;;;;;2.60;83.86;100814.78;5071464;28;20489;-66
2021/12/03 06:17:48;;;;;;;43.83;18.67;;;;;;;2.58;84.44;100814.88;5090147;28;20051;-67
2021/12/03 06:20:17;;;;;;;53.53;20.73;;;;;;;2.68;84.25;100815.97;5093121;28;20044;-67
2021/12/03 06:22:44;;;;;;;52.03;19.23;;;;;;;2.63;84.75;100807.56;5093338;28;20119;-66
2021/12/03 06:25:13;;;;;;;44.30;18.73;;;;;;;2.96;82.61;100814.13;5093195;28;20040;-66
2021/12/03 06:27:41;;;;;;;58.35;20.55;;;;;;;2.92;83.35;100809.22;5087389;28;20032;-66
2021/12/03 06:30:11;;;;;;;51.15;17.80;;;;;;;2.95;82.86;100801.13;5071795;28;20049;-66
2021/12/03 06:32:38;;;;;;;55.13;19.10;;;;;;;2.72;83.85;100797.44;5071670;28;20041;-66
2021/12/03 06:35:08;;;;;;;46.80;18.70;;;;;;;2.88;83.23;100813.81;5071757;28;20044;-67
2021/12/03 06:37:35;;;;;;;49.58;18.50;;;;;;;2.84;83.50;100802.69;5072971;28;20076;-66
2021/12/03 06:40:05;;;;;;;51.58;20.50;;;;;;;2.91;83.21;100804.88;5072411;28;20516;-66
2021/12/03 06:42:32;;;;;;;48.72;18.70;;;;;;;2.89;83.22;100810.22;5057197;28;20047;-67
2021/12/03 06:44:59;;;;;;;54.38;19.42;;;;;;;2.88;82.82;100806.78;5072449;28;20036;-66
2021/12/03 06:47:25;;;;;;;46.47;19.27;;;;;;;2.87;83.74;100807.75;5071551;28;20048;-66
2021/12/03 06:49:52;;;;;;;45.28;19.92;;;;;;;2.90;83.80;100800.59;5072641;28;20040;-66
2021/12/03 06:52:19;;;;;;;46.20;17.95;;;;;;;2.94;83.91;100797.66;5071348;28;20404;-66
2021/12/03 06:54:54;;;;;;;45.10;18.95;;;;;;;2.83;84.05;100801.00;5072334;28;20048;-66
2021/12/03 06:57:21;;;;;;;45.83;17.95;;;;;;;2.97;82.95;100788.78;5072738;28;20048;-67
2021/12/03 06:59:48;;;;;;;36.33;16.42;;;;;;;3.03;82.51;100788.34;5071026;28;20053;-66
2021/12/03 07:02:15;;;;;;;41.15;17.23;;;;;;;3.02;82.02;100797.13;5055190;28;20056;-66
2021/12/03 07:04:44;;;;;;;51.05;16.55;;;;;;;3.11;81.64;100793.91;5070883;28;20417;-66
2021/12/03 07:07:11;;;;;;;43.53;15.40;;;;;;;3.04;81.40;100798.72;5071241;28;20094;-67
2021/12/03 07:09:38;;;;;;;42.53;15.57;;;;;;;2.94;82.29;100805.53;5071480;28;20048;-66
2021/12/03 07:12:05;;;;;;;43.25;14.43;;;;;;;3.02;82.05;100791.91;5070741;28;20052;-66
2021/12/03 07:14:32;;;;;;;37.70;13.82;;;;;;;2.99;81.71;100794.75;5071296;28;20397;-67
2021/12/03 07:16:59;;;;;;;37.28;13.27;;;;;;;2.99;82.46;100792.13;5071458;28;20032;-66
2021/12/03 07:19:26;;;;;;;42.80;14.32;;;;;;;3.02;81.85;100792.75;5071549;28;20055;-66
2021/12/03 07:21:53;;;;;;;35.35;13.18;;;;;;;3.01;81.74;100792.84;5072397;28;20061;-66
2021/12/03 07:24:20;;;;;;;36.25;12.73;;;;;;;2.99;81.60;100792.13;5071342;28;20444;-66
2021/12/03 07:26:46;;;;;;;43.22;13.00;;;;;;;2.93;81.66;100800.38;5072272;28;20041;-68
2021/12/03 07:29:13;;;;;;;38.33;12.18;;;;;;;3.10;81.03;100784.38;5072502;28;20106;-67
2021/12/03 07:31:40;;;;;;;34.15;11.07;;;;;;;2.90;81.77;100790.97;5054921;28;20048;-66
2021/12/03 07:34:07;;;;;;;47.67;11.50;;;;;;;3.05;80.84;100796.94;5069380;28;20040;-65
2021/12/03 07:36:33;;;;;;;28.70;10.38;;;;;;;2.84;82.03;100799.25;5067279;28;20136;-62
2021/12/03 07:39:00;;;;;;;38.33;10.95;;;;;;;2.90;81.17;100793.56;5067413;28;20090;-62
2021/12/03 07:41:27;;;;;;;34.65;10.98;;;;;;;2.96;81.50;100785.28;5069590;28;20052;-62
2021/12/03 07:43:56;;;;;;;38.83;10.77;;;;;;;2.96;81.20;100784.47;5070608;28;20501;-61
2021/12/03 07:46:23;;;;;;;29.63;9.77;;;;;;;2.98;80.74;100787.81;5072230;28;20378;-61
2021/12/03 07:48:50;;;;;;;27.10;9.40;;;;;;;2.98;80.54;100786.03;5071618;28;20044;-61
2021/12/03 07:51:17;;;;;;;35.00;9.77;;;;;;;3.03;80.24;100788.34;5076470;28;20040;-61
2021/12/03 07:53:44;;;;;;;29.85;10.48;;;;;;;3.08;80.35;100791.50;5074774;28;20040;-61
2021/12/03 07:56:11;;;;;;;34.83;9.73;;;;;;;3.03;80.19;100790.97;5072534;28;20036;-61
2021/12/03 07:58:38;;;;;;;29.42;9.85;;;;;;;3.11;79.48;100793.06;5072698;28;20489;-61
2021/12/03 08:01:05;;;;;;;29.35;8.88;;;;;;;3.15;79.58;100791.94;5079090;28;20044;-66
2021/12/03 08:03:32;;;;;;;36.40;9.63;;;;;;;2.87;80.41;100791.16;5068784;28;20041;-65
2021/12/03 08:06:04;;;;;;;27.23;9.07;;;;;;;3.05;79.35;100796.94;5080552;28;20032;-65
2021/12/03 08:08:31;;;;;;;30.70;9.43;;;;;;;3.07;78.77;100781.94;5072200;28;20123;-66
2021/12/03 08:10:58;;;;;;;29.45;8.98;;;;;;;3.15;77.69;100787.50;5051685;28;20041;-65
2021/12/03 08:13:25;;;;;;;32.97;8.65;;;;;;;3.18;78.17;100792.53;5079316;28;20040;-65
2021/12/03 08:15:52;;;;;;;22.42;8.00;;;;;;;3.28;78.07;100795.38;5075957;28;20557;-66
2021/12/03 08:18:20;;;;;;;24.73;7.50;;;;;;;3.22;76.67;100803.66;5078546;28;20032;-66
2021/12/03 08:20:47;;;;;;;30.90;7.57;;;;;;;3.21;75.85;100802.81;5082350;28;20085;-66
2021/12/03 08:23:15;;;;;;;19.15;7.45;;;;;;;3.32;75.74;100816.97;5083150;28;20131;-66
2021/12/03 08:25:41;;;;;;;36.70;8.07;;;;;;;3.21;75.67;100821.16;5083893;28;20036;-66
2021/12/03 08:28:08;;;;;;;19.38;6.50;;;;;;;3.21;74.79;100815.94;5086782;28;20508;-66
2021/12/03 08:30:35;;;;;;;26.73;8.30;;;;;;;3.30;75.45;100817.09;5066436;28;20143;-66
2021/12/03 08:33:03;;;;;;;27.73;7.35;;;;;;;3.11;74.50;100814.91;5084235;28;20032;-66
2021/12/03 08:35:29;;;;;;;28.67;7.65;;;;;;;3.20;75.10;100808.16;5049781;28;20043;-66
2021/12/03 08:37:57;;;;;;;27.45;7.45;;;;;;;3.28;73.63;100807.66;5080775;28;20032;-66
2021/12/03 08:40:24;;;;;;;30.98;6.88;;;;;;;3.21;73.67;100800.19;5076380;28;20412;-66
2021/12/03 08:42:52;;;;;;;24.98;6.22;;;;;;;3.06;73.11;100791.59;5079025;28;20036;-66
2021/12/03 08:45:20;;;;;;;22.55;5.68;;;;;;;3.06;73.79;100794.22;5056835;28;20037;-65
2021/12/03 08:47:53;;;;;;;24.42;6.05;;;;;;;3.13;73.50;100785.94;5083061;28;20044;-65
2021/12/03 08:50:30;;;;;;;23.90;5.95;;;;;;;3.15;73.37;100791.94;5084767;28;20073;-66
2021/12/03 08:54:48;;;;;;;28.17;6.22;;;;;;;3.08;74.74;100791.50;5048182;28;20405;-67
2021/12/03 08:55:46;;;;;;;23.48;5.90;;;;;;;3.14;73.76;100787.63;5073302;28;20051;-65
2021/12/03 08:58:16;;;;;;;20.63;6.07;;;;;;;3.28;73.76;100790.13;5083942;28;20048;-65
2021/12/03 09:00:43;;;;;;;24.40;6.25;;;;;;;3.25;74.46;100777.22;5085581;28;20049;-66
2021/12/03 09:03:10;;;;;;;22.48;6.40;;;;;;;3.36;74.73;100784.34;5082509;28;20032;-65
2021/12/03 09:05:38;;;;;;;26.13;7.03;;;;;;;3.48;72.96;100793.16;5077147;28;20032;-65
2021/12/03 09:08:04;;;;;;;29.30;6.65;;;;;;;3.34;74.77;100792.31;5081920;28;20037;-66
2021/12/03 09:10:37;;;;;;;23.33;6.40;;;;;;;3.45;73.80;100791.59;5077956;28;20127;-65
2021/12/03 09:13:04;;;;;;;23.17;6.35;;;;;;;3.44;73.30;100793.38;5073418;28;20040;-66
2021/12/03 09:15:38;;;;;;;21.33;6.22;;;;;;;3.39;73.71;100784.97;5075572;28;20032;-65
2021/12/03 09:21:07;;;;;;;20.77;6.50;;;;;;;3.46;75.32;100774.91;5071031;28;20037;-65
2021/12/03 09:26:15;;;;;;;26.20;6.55;;;;;;;3.40;75.22;100789.28;5064732;27;1956577;-67
2021/12/03 09:28:47;;;;;;;20.77;6.68;;;;;;;3.49;74.34;100784.34;5091171;28;20115;-67
2021/12/03 09:31:16;;;;;;;27.80;7.32;;;;;;;3.39;73.50;100798.09;5074200;28;20043;-66
2021/12/03 09:33:46;;;;;;;24.38;6.28;;;;;;;3.38;74.01;100791.16;5075128;28;20044;-66
2021/12/03 09:36:13;;;;;;;22.92;6.30;;;;;;;3.43;74.46;100785.59;5089362;28;20063;-67
2021/12/03 09:38:40;;;;;;;25.73;7.53;;;;;;;3.44;73.57;100787.28;5106426;28;20874;-67
2021/12/03 09:41:10;;;;;;;24.02;6.22;;;;;;;3.45;74.14;100784.53;5078883;28;20055;-67
2021/12/03 09:43:41;;;;;;;22.08;6.28;;;;;;;3.50;74.60;100775.53;5099735;28;20048;-67
2021/12/03 09:46:19;;;;;;;26.33;6.57;;;;;;;3.46;74.54;100765.25;5101632;28;20104;-65
2021/12/03 09:51:53;;;;;;;20.25;5.47;;;;;;;3.56;73.40;100764.59;5126108;27;20393;-66
2021/12/03 09:57:14;;;;;;;26.17;6.30;;;;;;;3.68;74.79;100762.91;5119947;28;20041;-66
2021/12/03 10:07:09;;;;;;;24.65;5.50;;;;;;;3.83;72.51;100773.13;5101312;28;20327;-66
2021/12/03 10:15:07;;;;;;;22.58;5.63;;;;;;;3.87;71.51;100765.88;5109541;28;20028;-66
2021/12/03 10:17:35;;;;;;;23.90;4.50;;;;;;;3.65;71.57;100751.66;5110557;28;20126;-66
2021/12/03 10:28:28;;;;;;;29.50;6.93;;;;;;;3.80;72.53;100739.25;5124320;28;20074;-65
2021/12/03 10:37:38;;;;;;;17.55;4.82;;;;;;;3.83;71.24;100725.88;5121064;28;20036;-64
2021/12/03 10:40:37;;;;;;;21.67;4.53;;;;;;;3.77;70.89;100728.13;5123916;28;20047;-64
2021/12/03 10:43:21;;;;;;;21.33;4.32;;;;;;;3.77;70.73;100718.47;5117426;28;20051;-64
2021/12/03 10:49:24;;;;;;;20.30;4.70;;;;;;;3.68;71.32;100705.19;5108512;27;20137;-66
2021/12/03 10:52:03;;;;;;;19.13;4.93;;;;;;;3.78;70.96;100708.81;5058446;28;20075;-63
2021/12/03 11:58:18;;;;;;;21.95;4.10;;;;;;;4.20;69.17;100588.44;5137504;27;20369;-66
2021/12/03 12:00:36;;;;;;;18.70;3.70;;;;;;;4.29;68.63;100584.28;5120310;27;20054;-64
2021/12/03 12:10:07;;;;;;;19.08;3.90;;;;;;;4.29;68.31;100558.84;5125006;27;20031;-64
2021/12/03 12:18:48;;;;;;;17.15;3.90;;;;;;;4.27;69.29;100571.28;5101613;28;20036;-65
2021/12/03 13:20:26;;;;;;;13.60;3.75;;;;;;;4.68;68.78;100467.41;5089984;28;20056;-64
2021/12/03 13:25:23;;;;;;;12.45;3.95;;;;;;;4.69;68.04;100474.31;5088849;27;20397;-66
2021/12/03 13:28:37;;;;;;;15.35;4.13;;;;;;;4.63;68.33;100450.31;5084625;28;20040;-66
2021/12/03 13:57:05;;;;;;;7.95;2.20;;;;;;;4.54;66.58;100433.50;5112446;28;20035;-68
2021/12/03 14:02:17;;;;;;;7.97;2.67;;;;;;;4.51;66.76;100413.56;5111462;28;20128;-68
2021/12/03 14:20:14;;;;;;;7.30;2.72;;;;;;;4.49;66.47;100393.63;5099892;28;20130;-68
2021/12/03 14:37:21;;;;;;;14.98;3.75;;;;;;;4.32;67.40;100400.22;5115153;28;20044;-70
2021/12/03 14:39:27;;;;;;;13.73;3.88;;;;;;;4.36;68.28;100404.28;5115834;28;20071;-68
2021/12/03 14:42:05;;;;;;;8.90;3.00;;;;;;;4.33;67.67;100409.75;5113799;28;20048;-66
2021/12/03 14:47:57;;;;;;;10.13;3.25;;;;;;;4.33;68.39;100400.13;5107649;27;20182;-68
2021/12/03 14:50:57;;;;;;;13.60;3.08;;;;;;;4.31;70.16;100390.66;5083978;28;20115;-68
2021/12/03 14:56:09;;;;;;;10.15;3.42;;;;;;;4.28;70.29;100389.13;5062507;28;20489;-67
2021/12/03 14:58:52;;;;;;;11.68;3.22;;;;;;;4.23;70.79;100384.25;5088791;28;20040;-67
2021/12/03 15:01:27;;;;;;;12.05;3.75;;;;;;;4.26;70.94;100379.69;5082204;28;20044;-67
2021/12/03 15:07:03;;;;;;;9.77;3.10;;;;;;;4.12;72.43;100376.38;5078733;28;20028;-67
2021/12/03 15:09:34;;;;;;;8.52;3.30;;;;;;;4.07;72.78;100407.41;5081529;28;20050;-67
2021/12/03 15:15:56;;;;;;;11.38;3.20;;;;;;;3.95;73.85;100369.03;5061691;28;20128;-67
2021/12/03 15:21:08;;;;;;;10.88;3.58;;;;;;;3.79;74.92;100362.34;5076051;28;20097;-67
2021/12/03 15:23:17;;;;;;;13.63;3.72;;;;;;;3.74;74.94;100364.47;5091191;28;20473;-67
2021/12/03 15:25:57;;;;;;;12.48;3.83;;;;;;;3.74;75.17;100367.09;5075143;28;20044;-67
2021/12/03 15:31:42;;;;;;;10.50;3.85;;;;;;;3.89;75.62;100374.72;5084722;28;20043;-67
2021/12/03 15:34:28;;;;;;;9.18;3.33;;;;;;;3.89;75.85;100372.09;5081045;28;20048;-67
2021/12/03 15:40:03;;;;;;;14.85;3.78;;;;;;;3.92;75.29;100361.38;5062681;28;20055;-67
2021/12/03 16:04:48;;;;;;;12.00;4.50;;;;;;;4.25;74.53;100320.28;5051195;28;20060;-67
2021/12/03 16:07:57;;;;;;;9.52;4.22;;;;;;;4.27;74.65;100315.72;5057966;28;20032;-67
2021/12/03 16:10:15;;;;;;;12.20;4.53;;;;;;;4.17;75.53;100303.34;5072219;28;20044;-67